Time;durP1;ratioP1;P1;durP2;ratioP2;P2;SDS_P1;SDS_P2;PMS_P1;PMS_P2;Temp;Humidity;BMP_temperature;BMP_pressure;BME280_temperature;BME280_humidity;BME280_pressure;Samples;Min_cycle;Max_cycle;Signal;HPM_P1;HPM_P2
2021/10/04 00:01:31;;;;;;;30.95;21.27;;;15.90;67.40;;;;;;5052037;28;20071;-63
2021/10/04 00:03:57;;;;;;;27.80;18.70;;;15.90;67.80;;;;;;5051239;28;20040;-65
2021/10/04 00:06:22;;;;;;;31.90;20.10;;;15.90;68.20;;;;;;5051347;28;20580;-64
2021/10/04 00:08:48;;;;;;;31.50;20.50;;;15.80;67.60;;;;;;5051254;28;20074;-64
2021/10/04 00:11:14;;;;;;;25.92;17.23;;;15.90;67.50;;;;;;5051369;28;20032;-64
2021/10/04 00:13:40;;;;;;;24.25;15.88;;;15.90;67.20;;;;;;5051291;28;20032;-63
2021/10/04 00:16:06;;;;;;;29.63;18.35;;;15.90;67.00;;;;;;5051135;28;20021;-64
2021/10/04 00:18:32;;;;;;;29.40;17.23;;;15.80;67.00;;;;;;5050907;28;20029;-64
2021/10/04 00:20:58;;;;;;;26.05;16.38;;;15.80;66.90;;;;;;5051145;28;20021;-64
2021/10/04 00:23:24;;;;;;;27.50;16.70;;;15.80;66.90;;;;;;5051087;28;20053;-64
2021/10/04 00:25:50;;;;;;;32.90;19.70;;;15.80;66.90;;;;;;5050974;28;20021;-63
2021/10/04 00:28:15;;;;;;;32.65;20.83;;;15.80;67.50;;;;;;5050873;28;20379;-63
2021/10/04 00:30:42;;;;;;;26.90;16.35;;;15.70;68.60;;;;;;5051212;28;20037;-64
2021/10/04 00:33:07;;;;;;;31.73;18.90;;;15.70;68.50;;;;;;5054715;28;20021;-64
2021/10/04 00:35:33;;;;;;;28.55;18.95;;;15.70;68.70;;;;;;5054851;28;20512;-65
2021/10/04 00:37:59;;;;;;;32.60;19.52;;;15.70;69.00;;;;;;5054499;28;20474;-63
2021/10/04 00:40:29;;;;;;;35.72;20.58;;;15.70;69.40;;;;;;5074328;28;20086;-64
2021/10/04 00:42:55;;;;;;;29.77;18.15;;;15.70;69.70;;;;;;5074714;28;20024;-64
2021/10/04 00:45:21;;;;;;;31.67;18.23;;;15.70;69.70;;;;;;5074616;28;20078;-64
2021/10/04 00:47:47;;;;;;;32.00;19.65;;;15.70;69.90;;;;;;5070108;28;20025;-64
2021/10/04 00:50:15;;;;;;;28.45;18.55;;;15.70;70.10;;;;;;5060845;28;20082;-65
2021/10/04 00:52:41;;;;;;;26.77;17.83;;;15.70;70.20;;;;;;5073732;28;20025;-64
2021/10/04 00:55:11;;;;;;;26.95;16.90;;;15.80;70.30;;;;;;5066228;28;20048;-64
2021/10/04 00:57:38;;;;;;;28.30;19.83;;;15.80;70.10;;;;;;5070418;28;20028;-64
2021/10/04 01:00:11;;;;;;;23.23;16.25;;;15.80;69.80;;;;;;5072381;28;20036;-62
2021/10/04 01:02:40;;;;;;;21.60;14.15;;;15.80;69.50;;;;;;5073682;28;20044;-64
2021/10/04 01:05:07;;;;;;;21.73;14.48;;;15.80;69.00;;;;;;5055133;28;20363;-64
2021/10/04 01:07:33;;;;;;;22.50;16.27;;;15.90;68.60;;;;;;5053802;28;20035;-64
2021/10/04 01:09:59;;;;;;;25.67;15.23;;;15.80;68.30;;;;;;5053942;28;20016;-63
2021/10/04 01:12:25;;;;;;;22.80;14.77;;;15.80;68.10;;;;;;5053756;28;20064;-63
2021/10/04 01:14:51;;;;;;;22.75;16.10;;;15.80;68.10;;;;;;5053884;28;20028;-63
2021/10/04 01:17:17;;;;;;;28.98;15.35;;;15.80;67.90;;;;;;5053792;28;20021;-63
2021/10/04 01:19:42;;;;;;;28.38;16.48;;;15.70;67.70;;;;;;5053731;28;20029;-63
2021/10/04 01:22:10;;;;;;;24.35;16.50;;;15.70;67.70;;;;;;5053745;28;20474;-63
2021/10/04 01:24:36;;;;;;;26.23;17.05;;;15.70;67.80;;;;;;5053355;28;20036;-63
2021/10/04 01:27:04;;;;;;;27.27;15.90;;;15.70;67.70;;;;;;5053543;28;20036;-64
2021/10/04 01:29:30;;;;;;;26.02;16.63;;;15.60;67.70;;;;;;5053417;28;20380;-63
2021/10/04 01:31:56;;;;;;;22.65;14.77;;;15.60;67.80;;;;;;5053569;28;20029;-63
2021/10/04 01:34:23;;;;;;;20.30;14.57;;;15.60;67.80;;;;;;5053631;28;20029;-63
2021/10/04 01:36:48;;;;;;;29.05;17.80;;;15.60;67.70;;;;;;5053379;28;20109;-63
2021/10/04 01:39:14;;;;;;;32.53;17.73;;;15.60;68.10;;;;;;5061263;28;20387;-64
2021/10/04 01:41:40;;;;;;;28.33;14.98;;;15.50;68.70;;;;;;5073341;28;20045;-63
2021/10/04 01:44:06;;;;;;;29.85;16.70;;;15.50;68.60;;;;;;5058838;28;20374;-64
2021/10/04 01:46:32;;;;;;;23.80;15.57;;;15.50;68.80;;;;;;5053410;28;20017;-64
2021/10/04 01:48:58;;;;;;;30.40;17.90;;;15.50;69.10;;;;;;5066099;28;20013;-64
2021/10/04 01:51:23;;;;;;;30.92;18.77;;;15.50;69.30;;;;;;5073178;28;20029;-63
2021/10/04 01:53:49;;;;;;;31.45;19.00;;;15.50;69.60;;;;;;5061335;28;20108;-63
2021/10/04 01:56:15;;;;;;;40.33;18.48;;;15.50;69.70;;;;;;5064408;28;20056;-63
2021/10/04 01:58:41;;;;;;;28.92;15.25;;;15.50;69.70;;;;;;5071493;28;20439;-63
2021/10/04 02:01:07;;;;;;;25.92;15.43;;;15.50;69.60;;;;;;5072247;28;20115;-63
2021/10/04 02:03:33;;;;;;;28.25;15.43;;;15.50;69.50;;;;;;5072564;28;20082;-63
2021/10/04 02:05:58;;;;;;;24.95;15.80;;;15.50;69.40;;;;;;5072929;28;20100;-64
2021/10/04 02:08:24;;;;;;;24.20;15.65;;;15.50;69.30;;;;;;5072451;28;20506;-63
2021/10/04 02:10:51;;;;;;;20.55;14.45;;;15.50;69.20;;;;;;5053244;28;20033;-64
2021/10/04 02:13:17;;;;;;;22.95;15.68;;;15.50;69.10;;;;;;5052796;28;20033;-63
2021/10/04 02:15:44;;;;;;;24.65;15.93;;;15.50;69.30;;;;;;5052853;28;20017;-63
2021/10/04 02:18:11;;;;;;;22.73;15.32;;;15.40;69.30;;;;;;5052673;28;20033;-64
2021/10/04 02:20:41;;;;;;;21.88;15.18;;;15.50;69.30;;;;;;5052722;28;20445;-64
2021/10/04 02:23:09;;;;;;;29.65;15.82;;;15.50;69.30;;;;;;5052763;28;20130;-63
2021/10/04 02:25:40;;;;;;;22.15;14.43;;;15.50;69.30;;;;;;5052576;28;20025;-64
2021/10/04 02:28:08;;;;;;;20.75;13.55;;;15.50;69.80;;;;;;5056265;28;20027;-63
2021/10/04 02:30:34;;;;;;;18.48;12.93;;;15.50;68.70;;;;;;5058140;28;20067;-63
2021/10/04 02:33:00;;;;;;;23.92;13.32;;;15.50;68.50;;;;;;5052487;28;20124;-64
2021/10/04 02:35:26;;;;;;;17.40;11.90;;;15.50;68.30;;;;;;5051294;28;20112;-63
2021/10/04 02:37:53;;;;;;;22.75;13.75;;;15.40;68.20;;;;;;5052271;28;20107;-63
2021/10/04 02:40:20;;;;;;;20.77;12.65;;;15.40;68.30;;;;;;5052357;28;20025;-63
2021/10/04 02:42:47;;;;;;;18.35;12.68;;;15.40;68.40;;;;;;5052260;28;20029;-63
2021/10/04 02:45:15;;;;;;;21.88;13.85;;;15.30;68.30;;;;;;5052296;28;20017;-63
2021/10/04 02:47:42;;;;;;;19.70;13.15;;;15.30;68.30;;;;;;5054108;28;20079;-63
2021/10/04 02:50:10;;;;;;;19.38;13.43;;;15.30;68.30;;;;;;5071727;28;20102;-63
2021/10/04 02:52:36;;;;;;;20.45;13.90;;;15.30;68.30;;;;;;5070316;28;20116;-64
2021/10/04 02:55:03;;;;;;;18.02;12.70;;;15.30;68.30;;;;;;5051135;28;20123;-64
2021/10/04 02:57:29;;;;;;;17.15;11.15;;;15.30;68.20;;;;;;5051840;28;20025;-63
2021/10/04 02:59:55;;;;;;;20.95;13.30;;;15.20;68.10;;;;;;5052458;28;20391;-64
2021/10/04 03:02:21;;;;;;;17.52;12.70;;;15.20;68.10;;;;;;5051665;28;20037;-64
2021/10/04 03:04:47;;;;;;;17.90;11.80;;;15.10;68.20;;;;;;5051882;28;20016;-64
2021/10/04 03:07:13;;;;;;;24.58;12.75;;;15.20;68.20;;;;;;5051661;28;20025;-64
2021/10/04 03:09:38;;;;;;;32.50;13.63;;;15.20;68.30;;;;;;5051812;28;20104;-63
2021/10/04 03:12:04;;;;;;;29.02;14.50;;;15.10;68.20;;;;;;5051595;28;20037;-64
2021/10/04 03:14:30;;;;;;;27.65;15.18;;;15.10;68.30;;;;;;5051813;28;20086;-63
2021/10/04 03:16:56;;;;;;;27.15;14.75;;;15.10;68.40;;;;;;5051822;28;20028;-64
2021/10/04 03:19:22;;;;;;;20.33;13.90;;;15.10;68.50;;;;;;5065919;28;20519;-64
2021/10/04 03:21:48;;;;;;;19.58;13.27;;;15.10;68.60;;;;;;5071600;28;20027;-64
2021/10/04 03:24:15;;;;;;;18.17;12.93;;;15.10;68.60;;;;;;5051591;28;20108;-64
2021/10/04 03:26:42;;;;;;;21.00;14.18;;;15.00;68.50;;;;;;5051754;28;20378;-64
2021/10/04 03:29:09;;;;;;;19.98;12.98;;;15.00;68.60;;;;;;5051353;28;20174;-63
2021/10/04 03:31:36;;;;;;;19.65;13.70;;;15.00;68.60;;;;;;5051486;28;20021;-64
2021/10/04 03:34:02;;;;;;;21.58;14.23;;;15.00;68.70;;;;;;5051092;28;20419;-64
2021/10/04 03:36:28;;;;;;;22.15;15.05;;;15.00;68.80;;;;;;5051278;28;20080;-64
2021/10/04 03:38:54;;;;;;;28.50;16.45;;;15.00;69.00;;;;;;5051119;28;20029;-64
2021/10/04 03:41:20;;;;;;;28.63;16.85;;;15.00;69.30;;;;;;5051426;28;20109;-63
2021/10/04 03:43:46;;;;;;;24.00;14.75;;;15.00;69.50;;;;;;5062544;28;20500;-64
2021/10/04 03:46:12;;;;;;;20.63;13.77;;;15.00;69.50;;;;;;5054489;28;20063;-64
2021/10/04 03:48:38;;;;;;;23.70;14.13;;;15.00;69.50;;;;;;5051352;28;20031;-64
2021/10/04 03:51:03;;;;;;;29.92;15.65;;;15.10;69.40;;;;;;5051217;28;20201;-64
2021/10/04 03:53:29;;;;;;;20.23;13.13;;;15.10;69.30;;;;;;5051397;28;20032;-64
2021/10/04 03:55:56;;;;;;;28.80;14.02;;;15.10;69.30;;;;;;5057968;28;20029;-64
2021/10/04 03:58:22;;;;;;;24.40;15.48;;;15.10;69.30;;;;;;5051151;28;20059;-64
2021/10/04 04:00:47;;;;;;;24.42;14.55;;;15.10;69.30;;;;;;5052586;28;20021;-63
2021/10/04 04:03:13;;;;;;;21.50;13.15;;;15.10;69.30;;;;;;5051038;28;20048;-64
2021/10/04 04:05:39;;;;;;;24.23;15.57;;;15.10;69.20;;;;;;5051140;28;20086;-64
2021/10/04 04:08:05;;;;;;;29.35;17.13;;;15.10;69.20;;;;;;5054734;28;20078;-63
2021/10/04 04:10:31;;;;;;;35.15;19.25;;;15.10;69.30;;;;;;5055013;28;20090;-64
2021/10/04 04:12:56;;;;;;;28.27;16.73;;;15.10;69.70;;;;;;5057602;28;20086;-63
2021/10/04 04:15:22;;;;;;;25.70;15.73;;;15.10;69.70;;;;;;5074953;28;20063;-64
2021/10/04 04:17:48;;;;;;;28.88;16.80;;;15.10;69.70;;;;;;5074230;28;20029;-64
2021/10/04 04:20:14;;;;;;;25.10;16.40;;;15.10;69.70;;;;;;5074758;28;20032;-63
2021/10/04 04:22:40;;;;;;;24.63;14.40;;;15.10;69.70;;;;;;5072973;28;20025;-64
2021/10/04 04:25:08;;;;;;;23.92;16.05;;;15.10;69.60;;;;;;5056728;28;20363;-63
2021/10/04 04:27:34;;;;;;;23.77;14.18;;;15.10;69.50;;;;;;5053135;28;20513;-64
2021/10/04 04:30:01;;;;;;;21.30;13.55;;;15.20;69.40;;;;;;5054324;28;20174;-64
2021/10/04 04:32:27;;;;;;;22.60;13.52;;;15.20;69.30;;;;;;5053176;28;20036;-64
2021/10/04 04:34:53;;;;;;;25.40;15.45;;;15.20;69.30;;;;;;5054464;28;20025;-64
2021/10/04 04:37:19;;;;;;;26.75;16.63;;;15.20;69.20;;;;;;5054624;28;20159;-64
2021/10/04 04:39:46;;;;;;;26.40;17.98;;;15.20;69.20;;;;;;5054125;28;20033;-63
2021/10/04 04:42:12;;;;;;;25.90;16.88;;;15.30;69.20;;;;;;5054510;28;20028;-64
2021/10/04 04:44:38;;;;;;;26.83;16.38;;;15.30;69.10;;;;;;5054089;28;20393;-64
2021/10/04 04:47:04;;;;;;;22.95;14.93;;;15.30;69.00;;;;;;5064633;28;20078;-64
2021/10/04 04:49:30;;;;;;;22.60;14.52;;;15.30;69.00;;;;;;5074031;28;20486;-63
2021/10/04 04:51:58;;;;;;;24.20;16.00;;;15.30;69.00;;;;;;5074377;28;20489;-63
2021/10/04 04:54:26;;;;;;;21.50;14.85;;;15.30;68.90;;;;;;5074063;28;20029;-64
2021/10/04 04:56:55;;;;;;;24.13;15.35;;;15.40;68.90;;;;;;5071726;28;20031;-64
2021/10/04 04:59:23;;;;;;;22.25;15.38;;;15.40;68.90;;;;;;5069339;28;20494;-63
2021/10/04 05:01:49;;;;;;;27.40;15.18;;;15.40;68.90;;;;;;5053874;28;20029;-64
2021/10/04 05:04:15;;;;;;;21.60;14.98;;;15.40;68.90;;;;;;5053999;28;20122;-64
2021/10/04 05:06:40;;;;;;;22.52;15.82;;;15.40;68.90;;;;;;5060788;28;20058;-64
2021/10/04 05:09:06;;;;;;;26.02;15.40;;;15.40;68.90;;;;;;5073974;28;20486;-64
2021/10/04 05:11:32;;;;;;;25.38;15.75;;;15.40;68.80;;;;;;5063237;28;20036;-64
2021/10/04 05:13:58;;;;;;;21.95;14.57;;;15.50;68.90;;;;;;5054056;28;20090;-64
2021/10/04 05:16:24;;;;;;;29.48;16.45;;;15.50;68.80;;;;;;5053848;28;20033;-64
2021/10/04 05:18:50;;;;;;;27.40;16.33;;;15.50;68.80;;;;;;5052624;28;20037;-63
2021/10/04 05:21:15;;;;;;;25.52;15.65;;;15.50;68.80;;;;;;5053759;28;20029;-64
2021/10/04 05:23:41;;;;;;;23.20;16.33;;;15.50;68.80;;;;;;5053542;28;20099;-64
2021/10/04 05:26:07;;;;;;;25.27;16.55;;;15.60;68.90;;;;;;5059826;28;20028;-64
2021/10/04 05:28:33;;;;;;;25.45;16.30;;;15.60;68.90;;;;;;5056388;28;20489;-64
2021/10/04 05:30:58;;;;;;;26.73;17.23;;;15.70;69.00;;;;;;5054651;28;20017;-63
2021/10/04 05:33:25;;;;;;;30.27;19.30;;;15.70;69.00;;;;;;5053664;28;20055;-64
2021/10/04 05:35:51;;;;;;;30.30;19.00;;;15.70;69.00;;;;;;5053128;28;20540;-64
2021/10/04 05:38:16;;;;;;;31.80;20.60;;;15.80;69.00;;;;;;5073266;28;20028;-64
2021/10/04 05:40:43;;;;;;;35.30;21.23;;;15.80;68.90;;;;;;5057493;28;20448;-64
2021/10/04 05:43:09;;;;;;;31.27;20.40;;;15.90;68.80;;;;;;5059166;28;20149;-63
2021/10/04 05:45:34;;;;;;;33.30;20.15;;;15.90;68.60;;;;;;5073268;28;20033;-65
2021/10/04 05:48:00;;;;;;;31.10;19.00;;;16.00;68.60;;;;;;5071836;28;20024;-65
2021/10/04 05:50:26;;;;;;;31.42;19.67;;;16.00;68.50;;;;;;5061941;28;20040;-64
2021/10/04 05:52:52;;;;;;;28.20;18.13;;;16.00;68.50;;;;;;5052856;28;20025;-64
2021/10/04 05:55:19;;;;;;;34.85;19.30;;;16.00;68.30;;;;;;5052870;28;20029;-64
2021/10/04 05:57:45;;;;;;;31.60;19.48;;;16.10;68.30;;;;;;5052707;28;20072;-64
2021/10/04 06:00:13;;;;;;;28.50;18.52;;;16.10;68.30;;;;;;5052852;28;20029;-64
2021/10/04 06:02:39;;;;;;;38.17;21.70;;;16.30;68.40;;;;;;5063187;28;20044;-64
2021/10/04 06:05:07;;;;;;;31.10;20.13;;;16.30;68.40;;;;;;5073085;28;20355;-64
2021/10/04 06:07:33;;;;;;;32.78;19.77;;;16.30;68.30;;;;;;5072069;28;20482;-64
2021/10/04 06:09:58;;;;;;;34.72;21.45;;;16.40;68.30;;;;;;5067912;28;20037;-64
2021/10/04 06:12:26;;;;;;;38.40;23.60;;;16.50;68.30;;;;;;5059185;28;20027;-64
2021/10/04 06:14:57;;;;;;;35.95;22.52;;;16.60;68.10;;;;;;5072673;28;20059;-64
2021/10/04 06:17:23;;;;;;;34.72;21.73;;;16.70;67.90;;;;;;5065560;28;20031;-64
2021/10/04 06:19:49;;;;;;;35.47;23.10;;;16.70;67.80;;;;;;5052820;28;20390;-64
2021/10/04 06:22:15;;;;;;;34.63;21.48;;;16.80;67.90;;;;;;5052785;28;20375;-64
2021/10/04 06:24:41;;;;;;;34.47;20.48;;;16.90;67.70;;;;;;5052334;28;20021;-64
2021/10/04 06:27:07;;;;;;;30.23;19.25;;;17.00;67.60;;;;;;5051850;28;20029;-64
2021/10/04 06:29:33;;;;;;;34.42;20.50;;;17.20;67.70;;;;;;5052114;28;20021;-65
2021/10/04 06:31:58;;;;;;;37.08;22.00;;;17.30;67.60;;;;;;5052095;28;20029;-64
2021/10/04 06:34:24;;;;;;;34.58;20.95;;;17.40;67.30;;;;;;5052331;28;20029;-64
2021/10/04 06:36:50;;;;;;;34.30;20.42;;;17.50;67.00;;;;;;5058557;28;20052;-64
2021/10/04 06:39:16;;;;;;;32.60;20.60;;;17.60;66.80;;;;;;5056666;28;20056;-64
2021/10/04 06:41:42;;;;;;;28.17;19.48;;;17.80;66.70;;;;;;5052055;28;20036;-64
2021/10/04 06:44:09;;;;;;;40.15;23.50;;;17.90;66.40;;;;;;5054405;28;20074;-64
2021/10/04 06:46:36;;;;;;;33.50;20.67;;;18.00;65.40;;;;;;5052127;28;20556;-64
2021/10/04 06:49:03;;;;;;;31.02;20.35;;;18.10;65.20;;;;;;5052105;28;20013;-64
2021/10/04 06:51:28;;;;;;;31.55;20.60;;;18.10;65.00;;;;;;5054071;28;20029;-64
2021/10/04 06:53:54;;;;;;;38.88;22.08;;;18.20;65.00;;;;;;5059642;28;20021;-64
2021/10/04 06:56:20;;;;;;;33.38;22.42;;;18.30;64.80;;;;;;5056481;28;20029;-64
2021/10/04 06:58:45;;;;;;;31.60;21.00;;;18.40;64.80;;;;;;5064537;28;20374;-64
2021/10/04 07:01:11;;;;;;;30.63;21.50;;;18.40;64.60;;;;;;5071667;28;20449;-64
2021/10/04 07:03:38;;;;;;;32.22;21.30;;;18.50;64.40;;;;;;5060915;28;20067;-64
2021/10/04 07:06:04;;;;;;;33.45;22.60;;;18.60;64.00;;;;;;5051177;28;20017;-65
2021/10/04 07:08:30;;;;;;;39.05;23.15;;;18.60;63.50;;;;;;5051773;28;20398;-64
2021/10/04 07:10:56;;;;;;;32.47;20.63;;;18.70;63.20;;;;;;5051448;28;20021;-64
2021/10/04 07:13:22;;;;;;;36.75;21.48;;;18.70;63.10;;;;;;5051633;28;20021;-64
2021/10/04 07:15:48;;;;;;;32.72;20.83;;;18.80;63.10;;;;;;5054424;28;20024;-64
2021/10/04 07:18:16;;;;;;;36.58;21.27;;;18.80;63.00;;;;;;5071718;28;20020;-64
2021/10/04 07:20:42;;;;;;;36.40;21.27;;;18.90;62.80;;;;;;5071719;28;20034;-63
2021/10/04 07:23:08;;;;;;;38.40;23.27;;;18.90;62.40;;;;;;5069571;28;20147;-63
2021/10/04 07:25:34;;;;;;;41.67;23.27;;;19.00;62.20;;;;;;5071041;28;20135;-66
2021/10/04 07:28:02;;;;;;;36.80;22.60;;;18.90;61.80;;;;;;5071272;28;20389;-64
2021/10/04 07:30:28;;;;;;;35.70;22.85;;;19.00;61.90;;;;;;5071510;28;20074;-64
2021/10/04 07:32:55;;;;;;;40.17;22.02;;;19.00;61.80;;;;;;5067498;28;20025;-65
2021/10/04 07:35:22;;;;;;;33.60;20.50;;;19.10;61.70;;;;;;5053473;28;20109;-65
2021/10/04 07:37:48;;;;;;;36.50;22.67;;;19.10;61.70;;;;;;5069523;28;20111;-65
2021/10/04 07:40:15;;;;;;;38.40;22.30;;;19.20;61.70;;;;;;5057316;28;20104;-65
2021/10/04 07:42:42;;;;;;;45.20;24.00;;;19.20;61.40;;;;;;5054389;28;20032;-64
2021/10/04 07:45:09;;;;;;;49.10;25.73;;;19.20;61.20;;;;;;5055587;28;20021;-65
2021/10/04 07:47:35;;;;;;;40.83;26.02;;;19.20;60.70;;;;;;5055204;28;20362;-64
2021/10/04 07:50:01;;;;;;;44.85;24.38;;;19.20;60.50;;;;;;5055252;28;20039;-65
2021/10/04 07:52:27;;;;;;;42.70;25.27;;;19.20;60.50;;;;;;5055435;28;20111;-65
2021/10/04 07:54:52;;;;;;;45.28;25.77;;;19.10;60.50;;;;;;5055377;28;20028;-66
2021/10/04 07:57:18;;;;;;;36.20;22.13;;;19.00;60.50;;;;;;5055658;28;20082;-66
2021/10/04 07:59:44;;;;;;;57.20;24.83;;;19.00;60.90;;;;;;5069559;28;20367;-65
2021/10/04 08:02:10;;;;;;;36.17;20.38;;;19.00;61.10;;;;;;5055350;28;20033;-65
2021/10/04 08:04:36;;;;;;;37.78;21.63;;;18.90;61.10;;;;;;5062962;28;20029;-65
2021/10/04 08:07:03;;;;;;;37.05;23.02;;;18.90;61.30;;;;;;5064142;28;20025;-65
2021/10/04 08:09:29;;;;;;;42.45;23.38;;;18.90;61.30;;;;;;5054766;28;20108;-66
2021/10/04 08:11:55;;;;;;;39.05;23.55;;;18.90;61.40;;;;;;5061114;28;20452;-65
2021/10/04 08:14:23;;;;;;;40.42;23.77;;;18.90;61.60;;;;;;5074619;28;20086;-65
2021/10/04 08:16:49;;;;;;;37.65;23.30;;;18.80;61.70;;;;;;5066071;28;20024;-66
2021/10/04 08:19:15;;;;;;;35.85;22.63;;;18.80;61.70;;;;;;5066168;28;20082;-65
2021/10/04 08:21:40;;;;;;;32.72;20.73;;;18.80;61.90;;;;;;5065719;28;20165;-66
2021/10/04 08:24:06;;;;;;;38.72;22.35;;;18.80;62.20;;;;;;5055477;28;20025;-65
2021/10/04 08:26:32;;;;;;;33.67;20.98;;;18.90;62.50;;;;;;5063479;28;20021;-65
2021/10/04 08:28:58;;;;;;;36.92;21.23;;;18.90;62.70;;;;;;5072570;28;20024;-65
2021/10/04 08:31:29;;;;;;;37.35;21.90;;;19.00;62.70;;;;;;5055007;28;20057;-65
2021/10/04 08:33:59;;;;;;;32.70;21.70;;;19.20;62.70;;;;;;5053176;28;20448;-66
2021/10/04 08:36:25;;;;;;;33.05;21.90;;;19.30;62.50;;;;;;5060555;28;20032;-66
2021/10/04 08:38:51;;;;;;;34.20;22.75;;;19.40;62.30;;;;;;5060189;28;20033;-65
2021/10/04 08:41:21;;;;;;;33.25;22.02;;;19.40;61.80;;;;;;5055539;28;20025;-64
2021/10/04 08:43:51;;;;;;;42.40;23.27;;;19.50;61.60;;;;;;5064729;28;20016;-67
2021/10/04 08:46:18;;;;;;;29.33;20.45;;;19.60;61.30;;;;;;5073778;28;20433;-65
2021/10/04 08:48:45;;;;;;;35.13;21.73;;;19.70;61.10;;;;;;5073688;28;20044;-64
2021/10/04 08:51:11;;;;;;;30.58;19.00;;;19.70;61.00;;;;;;5072763;28;20454;-67
2021/10/04 08:53:38;;;;;;;29.48;18.52;;;19.80;61.10;;;;;;5062576;28;20027;-62
2021/10/04 08:56:04;;;;;;;26.10;17.58;;;19.80;60.50;;;;;;5054130;28;20060;-64
2021/10/04 08:58:32;;;;;;;27.27;16.40;;;19.90;60.10;;;;;;5054173;28;20061;-66
2021/10/04 09:01:02;;;;;;;27.52;16.70;;;19.90;59.90;;;;;;5058574;28;20025;-65
2021/10/04 09:03:48;;;;;;;28.30;17.05;;;19.90;59.80;;;;;;5073855;28;20047;-65
2021/10/04 09:06:26;;;;;;;25.50;17.02;;;20.00;59.90;;;;;;5073949;28;20016;-63
2021/10/04 09:08:54;;;;;;;28.27;16.73;;;20.10;59.80;;;;;;5059103;28;20029;-64
2021/10/04 09:11:47;;;;;;;26.15;16.77;;;20.10;59.70;;;;;;5061034;28;20394;-64
2021/10/04 09:14:17;;;;;;;25.97;18.27;;;20.10;59.70;;;;;;5057963;28;20029;-65
2021/10/04 09:17:01;;;;;;;26.65;17.45;;;20.20;59.60;;;;;;5060578;28;20059;-63
2021/10/04 09:19:32;;;;;;;;;;;20.30;59.60;;;;;;5057035;28;20397;-65
2021/10/04 09:22:08;;;;;;;31.45;16.52;;;20.40;60.20;;;;;;5059223;28;19932;-65
2021/10/04 09:24:48;;;;;;;31.05;17.08;;;20.40;59.40;;;;;;5054399;28;20025;-67
2021/10/04 09:27:32;;;;;;;24.90;16.58;;;20.50;59.40;;;;;;5066176;28;20021;-69
2021/10/04 09:30:00;;;;;;;19.23;13.80;;;20.50;59.40;;;;;;5054358;28;20211;-67
2021/10/04 09:32:39;;;;;;;25.08;16.48;;;20.60;59.40;;;;;;5054650;28;20398;-67
2021/10/04 09:35:32;;;;;;;25.15;15.60;;;20.60;59.10;;;;;;5066017;28;20032;-67
2021/10/04 09:37:57;;;;;;;24.42;16.17;;;20.70;59.10;;;;;;5054880;28;20044;-68
2021/10/04 09:40:43;;;;;;;20.23;15.93;;;20.80;58.80;;;;;;5053493;28;20033;-67
2021/10/04 09:43:21;;;;;;;22.30;16.33;;;20.80;58.60;;;;;;5060435;28;20029;-69
2021/10/04 09:46:07;;;;;;;22.88;15.35;;;20.90;58.70;;;;;;5053792;28;20208;-69
2021/10/04 09:48:34;;;;;;;23.95;14.23;;;20.90;58.70;;;;;;5053692;28;20090;-69
2021/10/04 09:51:18;;;;;;;23.80;15.32;;;21.00;58.80;;;;;;5059876;28;20024;-64
2021/10/04 09:54:02;;;;;;;;;;;21.10;58.50;;;;;;5057570;28;20086;-66
2021/10/04 09:56:28;;;;;;;27.58;16.20;;;21.20;59.10;;;;;;5058216;28;19948;-63
2021/10/04 09:58:54;;;;;;;23.42;16.17;;;21.20;57.80;;;;;;5053270;28;20067;-65
2021/10/04 10:01:19;;;;;;;23.38;16.50;;;21.30;57.90;;;;;;5060760;28;20430;-65
2021/10/04 10:03:46;;;;;;;22.95;17.08;;;21.30;57.70;;;;;;5072697;28;20047;-66
2021/10/04 10:06:11;;;;;;;24.90;15.45;;;21.30;57.60;;;;;;5066143;28;20096;-65
2021/10/04 10:08:37;;;;;;;31.75;16.77;;;21.40;57.90;;;;;;5053269;28;20103;-65
2021/10/04 10:11:05;;;;;;;25.35;17.25;;;21.40;57.70;;;;;;5065853;28;20120;-66
2021/10/04 10:13:33;;;;;;;25.00;17.42;;;21.50;57.70;;;;;;5060254;28;20027;-65
2021/10/04 10:16:19;;;;;;;29.58;16.98;;;21.50;57.50;;;;;;5066886;28;20389;-66
2021/10/04 10:19:11;;;;;;;25.02;15.63;;;21.60;57.70;;;;;;5060912;28;20075;-65
2021/10/04 10:21:38;;;;;;;30.65;16.17;;;21.60;57.70;;;;;;5066637;28;20398;-65
2021/10/04 10:24:11;;;;;;;20.63;15.60;;;21.70;57.60;;;;;;5072029;28;20112;-65
2021/10/04 10:26:48;;;;;;;20.65;15.65;;;21.70;57.00;;;;;;5065010;28;20096;-64
2021/10/04 10:29:17;;;;;;;22.58;15.95;;;21.80;56.90;;;;;;5072560;28;20039;-65
2021/10/04 10:31:57;;;;;;;24.20;16.40;;;21.90;56.40;;;;;;5063873;28;20030;-65
2021/10/04 10:34:29;;;;;;;25.67;15.52;;;21.90;56.50;;;;;;5072024;28;20052;-65
2021/10/04 10:37:15;;;;;;;27.20;16.55;;;22.00;56.60;;;;;;5053041;28;20040;-65
2021/10/04 10:39:45;;;;;;;20.75;15.60;;;22.00;55.70;;;;;;5052841;28;20016;-65
2021/10/04 10:42:17;;;;;;;25.58;16.55;;;22.10;55.60;;;;;;5054068;28;20386;-65
2021/10/04 10:44:57;;;;;;;23.25;16.33;;;22.10;55.10;;;;;;5052372;28;20025;-65
2021/10/04 10:47:35;;;;;;;24.40;16.48;;;22.10;55.00;;;;;;5068393;28;20174;-66
2021/10/04 10:50:09;;;;;;;20.90;15.20;;;22.20;55.00;;;;;;5071572;28;20032;-65
2021/10/04 10:52:39;;;;;;;19.15;14.13;;;22.20;54.60;;;;;;5060290;28;20035;-65
2021/10/04 10:55:19;;;;;;;21.65;15.07;;;22.30;54.40;;;;;;5052475;28;20474;-66
2021/10/04 10:57:51;;;;;;;17.58;13.93;;;22.30;54.60;;;;;;5058998;28;20028;-66
2021/10/04 11:00:39;;;;;;;19.38;13.90;;;22.40;54.80;;;;;;5055236;28;20028;-65
2021/10/04 11:03:22;;;;;;;20.77;14.88;;;22.50;55.00;;;;;;5057856;28;20494;-65
2021/10/04 11:06:06;;;;;;;23.70;15.38;;;22.50;54.50;;;;;;5065977;28;20093;-66
2021/10/04 11:08:35;;;;;;;22.88;14.20;;;22.60;54.30;;;;;;5051897;28;20540;-66
2021/10/04 11:11:00;;;;;;;19.58;14.02;;;22.60;54.50;;;;;;5052767;28;20056;-66
2021/10/04 11:13:33;;;;;;;17.35;12.70;;;22.70;54.40;;;;;;5061858;28;20064;-66
2021/10/04 11:16:20;;;;;;;19.00;13.52;;;22.70;54.30;;;;;;5078893;28;20047;-66
2021/10/04 11:18:47;;;;;;;26.73;13.00;;;22.80;54.00;;;;;;5064971;28;20039;-65
2021/10/04 11:21:20;;;;;;;16.98;12.30;;;22.80;53.80;;;;;;5063117;28;20031;-66
2021/10/04 11:23:56;;;;;;;15.88;11.65;;;22.80;53.60;;;;;;5066509;28;20024;-66
2021/10/04 11:26:25;;;;;;;16.88;11.57;;;22.90;53.90;;;;;;5064148;28;20033;-66
2021/10/04 11:29:02;;;;;;;18.88;11.38;;;23.00;53.70;;;;;;5051768;28;20032;-65
2021/10/04 11:31:40;;;;;;;20.70;10.80;;;23.00;53.50;;;;;;5058851;28;20513;-65
2021/10/04 11:34:08;;;;;;;13.60;9.95;;;23.00;53.30;;;;;;5055551;28;20368;-66
2021/10/04 11:36:37;;;;;;;16.08;12.15;;;23.10;53.30;;;;;;5068945;28;20082;-66
2021/10/04 11:39:08;;;;;;;16.02;10.68;;;23.10;52.70;;;;;;5057333;28;20426;-66
2021/10/04 11:41:38;;;;;;;13.85;9.95;;;23.10;52.80;;;;;;5066595;28;20021;-65
2021/10/04 11:44:06;;;;;;;12.98;10.10;;;23.20;53.00;;;;;;5055897;28;20442;-66
2021/10/04 11:46:37;;;;;;;14.18;10.75;;;23.30;53.20;;;;;;5063509;28;20095;-67
2021/10/04 11:49:15;;;;;;;15.40;10.60;;;23.30;53.20;;;;;;5062436;28;20059;-66
2021/10/04 11:51:49;;;;;;;12.75;9.65;;;23.30;52.80;;;;;;5055524;28;20025;-66
2021/10/04 11:54:44;;;;;;;17.80;11.52;;;23.30;52.80;;;;;;5055670;28;20025;-66
2021/10/04 11:57:18;;;;;;;15.15;10.93;;;23.30;52.70;;;;;;5053474;28;20032;-66
2021/10/04 11:59:52;;;;;;;14.80;11.55;;;23.40;52.80;;;;;;5051315;28;20028;-67
2021/10/04 12:02:40;;;;;;;18.95;11.95;;;23.40;52.60;;;;;;5050362;28;20442;-66
2021/10/04 12:05:14;;;;;;;16.70;11.00;;;23.40;53.00;;;;;;5050401;28;20037;-66
2021/10/04 12:07:59;;;;;;;13.68;10.18;;;23.50;52.90;;;;;;5062151;28;20093;-66
2021/10/04 12:10:44;;;;;;;15.90;11.27;;;23.50;52.90;;;;;;5067845;28;20032;-66
2021/10/04 12:13:10;;;;;;;;;;;23.50;52.80;;;;;;5064811;28;20048;-66
2021/10/04 12:15:38;;;;;;;16.15;10.85;;;23.60;53.60;;;;;;5050650;28;19947;-66
2021/10/04 12:18:04;;;;;;;15.23;10.65;;;23.60;52.90;;;;;;5064221;28;20086;-66
2021/10/04 12:20:30;;;;;;;19.70;11.80;;;23.60;53.00;;;;;;5065364;28;20025;-67
2021/10/04 12:22:56;;;;;;;14.80;11.15;;;23.70;52.70;;;;;;5065674;28;20052;-66
2021/10/04 12:25:31;;;;;;;18.27;11.68;;;23.70;52.70;;;;;;5050280;28;20450;-66
2021/10/04 12:28:06;;;;;;;16.65;9.70;;;23.80;52.80;;;;;;5051966;28;20489;-66
2021/10/04 12:30:43;;;;;;;12.50;9.13;;;23.80;52.70;;;;;;5053993;28;20030;-66
2021/10/04 12:33:09;;;;;;;13.75;9.35;;;23.90;52.60;;;;;;5062225;28;20050;-67
2021/10/04 12:35:35;;;;;;;12.52;8.95;;;23.90;52.40;;;;;;5073447;28;20044;-66